sensor_id;sensor_type;location;lat;lon;timestamp;P1;durP1;ratioP1;P2;durP2;ratioP2
73900;SDS011;62235;52.160;7.526;2023-01-10T00:00:18;8.55;;;2.28;;
73900;SDS011;62235;52.160;7.526;2023-01-10T00:02:47;5.40;;;2.45;;
73900;SDS011;62235;52.160;7.526;2023-01-10T00:05:12;11.07;;;3.20;;
73900;SDS011;62235;52.160;7.526;2023-01-10T00:07:38;6.15;;;2.80;;
73900;SDS011;62235;52.160;7.526;2023-01-10T00:10:03;11.83;;;3.73;;
73900;SDS011;62235;52.160;7.526;2023-01-10T00:12:29;7.00;;;2.92;;
73900;SDS011;62235;52.160;7.526;2023-01-10T00:15:12;10.52;;;2.92;;
73900;SDS011;62235;52.160;7.526;2023-01-10T00:17:37;9.27;;;2.40;;
73900;SDS011;62235;52.160;7.526;2023-01-10T00:20:03;9.50;;;2.83;;
73900;SDS011;62235;52.160;7.526;2023-01-10T00:22:29;11.48;;;2.67;;
73900;SDS011;62235;52.160;7.526;2023-01-10T00:24:54;6.55;;;2.42;;
73900;SDS011;62235;52.160;7.526;2023-01-10T00:27:19;5.90;;;2.73;;
73900;SDS011;62235;52.160;7.526;2023-01-10T00:29:46;5.70;;;1.70;;
73900;SDS011;62235;52.160;7.526;2023-01-10T00:32:13;8.85;;;2.65;;
73900;SDS011;62235;52.160;7.526;2023-01-10T00:34:39;5.70;;;2.03;;
73900;SDS011;62235;52.160;7.526;2023-01-10T00:37:04;8.85;;;3.00;;
73900;SDS011;62235;52.160;7.526;2023-01-10T00:39:29;16.70;;;3.70;;
73900;SDS011;62235;52.160;7.526;2023-01-10T00:41:55;12.25;;;3.35;;
73900;SDS011;62235;52.160;7.526;2023-01-10T00:44:39;13.63;;;3.08;;
73900;SDS011;62235;52.160;7.526;2023-01-10T00:47:04;9.17;;;2.63;;
73900;SDS011;62235;52.160;7.526;2023-01-10T00:49:29;9.77;;;2.55;;
73900;SDS011;62235;52.160;7.526;2023-01-10T00:51:55;10.43;;;2.50;;
73900;SDS011;62235;52.160;7.526;2023-01-10T00:54:23;9.93;;;2.10;;
73900;SDS011;62235;52.160;7.526;2023-01-10T00:56:49;3.78;;;1.23;;
73900;SDS011;62235;52.160;7.526;2023-01-10T00:59:14;14.10;;;3.20;;
73900;SDS011;62235;52.160;7.526;2023-01-10T01:01:39;13.20;;;2.97;;
73900;SDS011;62235;52.160;7.526;2023-01-10T01:04:05;6.78;;;2.13;;
73900;SDS011;62235;52.160;7.526;2023-01-10T01:06:30;9.87;;;2.87;;
73900;SDS011;62235;52.160;7.526;2023-01-10T01:08:55;9.00;;;2.50;;
73900;SDS011;62235;52.160;7.526;2023-01-10T01:11:21;4.00;;;1.60;;
73900;SDS011;62235;52.160;7.526;2023-01-10T01:13:46;12.77;;;2.25;;
73900;SDS011;62235;52.160;7.526;2023-01-10T01:16:11;5.80;;;1.67;;
73900;SDS011;62235;52.160;7.526;2023-01-10T01:18:37;9.90;;;2.10;;
73900;SDS011;62235;52.160;7.526;2023-01-10T01:21:02;10.30;;;2.47;;
73900;SDS011;62235;52.160;7.526;2023-01-10T01:23:29;10.32;;;2.08;;
73900;SDS011;62235;52.160;7.526;2023-01-10T01:25:55;9.23;;;2.50;;
73900;SDS011;62235;52.160;7.526;2023-01-10T01:28:21;9.35;;;2.10;;
73900;SDS011;62235;52.160;7.526;2023-01-10T01:30:46;12.90;;;2.58;;
73900;SDS011;62235;52.160;7.526;2023-01-10T01:33:12;12.27;;;3.03;;
73900;SDS011;62235;52.160;7.526;2023-01-10T01:35:43;6.95;;;2.05;;
73900;SDS011;62235;52.160;7.526;2023-01-10T01:38:08;5.45;;;1.23;;
73900;SDS011;62235;52.160;7.526;2023-01-10T01:40:34;5.78;;;1.20;;
73900;SDS011;62235;52.160;7.526;2023-01-10T01:43:00;7.72;;;2.13;;
73900;SDS011;62235;52.160;7.526;2023-01-10T01:45:30;9.00;;;2.00;;
73900;SDS011;62235;52.160;7.526;2023-01-10T01:50:49;6.50;;;1.85;;
73900;SDS011;62235;52.160;7.526;2023-01-10T01:53:26;5.35;;;2.10;;
73900;SDS011;62235;52.160;7.526;2023-01-10T01:55:58;15.05;;;3.35;;
73900;SDS011;62235;52.160;7.526;2023-01-10T01:58:45;7.90;;;1.75;;
73900;SDS011;62235;52.160;7.526;2023-01-10T02:01:13;17.75;;;3.70;;
73900;SDS011;62235;52.160;7.526;2023-01-10T02:03:39;8.68;;;3.10;;
73900;SDS011;62235;52.160;7.526;2023-01-10T02:06:07;11.52;;;1.95;;
73900;SDS011;62235;52.160;7.526;2023-01-10T02:08:32;12.52;;;3.25;;
73900;SDS011;62235;52.160;7.526;2023-01-10T02:11:05;12.57;;;2.50;;
73900;SDS011;62235;52.160;7.526;2023-01-10T02:13:33;7.78;;;2.22;;
73900;SDS011;62235;52.160;7.526;2023-01-10T02:15:59;6.03;;;2.00;;
73900;SDS011;62235;52.160;7.526;2023-01-10T02:18:24;10.52;;;2.70;;
73900;SDS011;62235;52.160;7.526;2023-01-10T02:26:27;10.25;;;2.80;;
73900;SDS011;62235;52.160;7.526;2023-01-10T02:34:39;13.25;;;2.55;;
73900;SDS011;62235;52.160;7.526;2023-01-10T02:42:54;11.27;;;3.30;;
73900;SDS011;62235;52.160;7.526;2023-01-10T02:47:51;8.38;;;2.95;;
73900;SDS011;62235;52.160;7.526;2023-01-10T02:51:02;13.97;;;3.00;;
73900;SDS011;62235;52.160;7.526;2023-01-10T02:53:09;13.20;;;3.35;;
73900;SDS011;62235;52.160;7.526;2023-01-10T03:01:41;15.90;;;2.75;;
73900;SDS011;62235;52.160;7.526;2023-01-10T03:04:27;10.20;;;2.33;;
73900;SDS011;62235;52.160;7.526;2023-01-10T03:07:27;15.43;;;2.80;;
73900;SDS011;62235;52.160;7.526;2023-01-10T03:15:07;10.23;;;2.72;;
73900;SDS011;62235;52.160;7.526;2023-01-10T03:17:33;12.50;;;2.53;;
73900;SDS011;62235;52.160;7.526;2023-01-10T03:20:00;11.73;;;3.72;;
73900;SDS011;62235;52.160;7.526;2023-01-10T03:22:29;10.65;;;3.10;;
73900;SDS011;62235;52.160;7.526;2023-01-10T03:24:56;13.90;;;2.58;;
73900;SDS011;62235;52.160;7.526;2023-01-10T03:28:06;13.77;;;3.15;;
73900;SDS011;62235;52.160;7.526;2023-01-10T03:32:53;9.35;;;2.08;;
73900;SDS011;62235;52.160;7.526;2023-01-10T03:35:20;9.70;;;2.53;;
73900;SDS011;62235;52.160;7.526;2023-01-10T03:37:51;16.90;;;2.88;;
73900;SDS011;62235;52.160;7.526;2023-01-10T03:40:32;12.40;;;2.85;;
73900;SDS011;62235;52.160;7.526;2023-01-10T03:43:07;15.48;;;3.80;;
73900;SDS011;62235;52.160;7.526;2023-01-10T03:45:57;13.77;;;2.60;;
73900;SDS011;62235;52.160;7.526;2023-01-10T03:48:29;10.48;;;3.00;;
73900;SDS011;62235;52.160;7.526;2023-01-10T03:50:56;9.18;;;2.65;;
73900;SDS011;62235;52.160;7.526;2023-01-10T03:53:23;15.60;;;2.63;;
73900;SDS011;62235;52.160;7.526;2023-01-10T03:55:48;17.00;;;3.13;;
73900;SDS011;62235;52.160;7.526;2023-01-10T03:58:13;11.50;;;2.80;;
73900;SDS011;62235;52.160;7.526;2023-01-10T04:00:41;3.47;;;1.52;;
73900;SDS011;62235;52.160;7.526;2023-01-10T04:03:06;6.73;;;2.00;;
73900;SDS011;62235;52.160;7.526;2023-01-10T04:05:33;9.40;;;2.92;;
73900;SDS011;62235;52.160;7.526;2023-01-10T04:07:59;14.63;;;2.60;;
73900;SDS011;62235;52.160;7.526;2023-01-10T04:10:24;7.77;;;1.77;;
73900;SDS011;62235;52.160;7.526;2023-01-10T04:12:51;15.98;;;3.17;;
73900;SDS011;62235;52.160;7.526;2023-01-10T04:15:17;9.85;;;2.13;;
73900;SDS011;62235;52.160;7.526;2023-01-10T04:17:42;12.40;;;1.87;;
73900;SDS011;62235;52.160;7.526;2023-01-10T04:20:08;8.55;;;2.22;;
73900;SDS011;62235;52.160;7.526;2023-01-10T04:22:34;4.57;;;1.55;;
73900;SDS011;62235;52.160;7.526;2023-01-10T04:24:59;10.67;;;2.27;;
73900;SDS011;62235;52.160;7.526;2023-01-10T04:27:24;8.17;;;1.70;;
73900;SDS011;62235;52.160;7.526;2023-01-10T04:29:50;5.50;;;1.90;;
73900;SDS011;62235;52.160;7.526;2023-01-10T04:32:15;11.55;;;2.08;;
73900;SDS011;62235;52.160;7.526;2023-01-10T04:34:40;7.95;;;2.25;;
73900;SDS011;62235;52.160;7.526;2023-01-10T04:37:06;14.00;;;2.42;;
73900;SDS011;62235;52.160;7.526;2023-01-10T04:39:31;9.07;;;2.07;;
73900;SDS011;62235;52.160;7.526;2023-01-10T04:41:56;10.47;;;2.53;;
73900;SDS011;62235;52.160;7.526;2023-01-10T04:44:22;14.73;;;3.35;;
73900;SDS011;62235;52.160;7.526;2023-01-10T04:46:47;11.27;;;3.13;;
73900;SDS011;62235;52.160;7.526;2023-01-10T04:49:13;16.98;;;2.45;;
73900;SDS011;62235;52.160;7.526;2023-01-10T04:51:38;9.32;;;1.73;;
73900;SDS011;62235;52.160;7.526;2023-01-10T04:54:04;7.63;;;1.63;;
73900;SDS011;62235;52.160;7.526;2023-01-10T04:56:30;10.85;;;2.40;;
73900;SDS011;62235;52.160;7.526;2023-01-10T04:58:55;4.80;;;1.38;;
73900;SDS011;62235;52.160;7.526;2023-01-10T05:01:22;8.37;;;2.07;;
73900;SDS011;62235;52.160;7.526;2023-01-10T05:03:50;19.08;;;3.05;;
73900;SDS011;62235;52.160;7.526;2023-01-10T05:06:17;7.93;;;2.17;;
73900;SDS011;62235;52.160;7.526;2023-01-10T05:08:42;13.20;;;2.33;;
73900;SDS011;62235;52.160;7.526;2023-01-10T05:11:08;12.88;;;2.88;;
73900;SDS011;62235;52.160;7.526;2023-01-10T05:13:34;9.37;;;2.03;;
73900;SDS011;62235;52.160;7.526;2023-01-10T05:16:00;10.32;;;2.00;;
73900;SDS011;62235;52.160;7.526;2023-01-10T05:18:25;16.20;;;3.13;;
73900;SDS011;62235;52.160;7.526;2023-01-10T05:20:52;11.85;;;2.38;;
73900;SDS011;62235;52.160;7.526;2023-01-10T05:23:23;9.70;;;3.08;;
73900;SDS011;62235;52.160;7.526;2023-01-10T05:25:48;11.48;;;2.35;;
73900;SDS011;62235;52.160;7.526;2023-01-10T05:28:15;8.18;;;2.00;;
73900;SDS011;62235;52.160;7.526;2023-01-10T05:30:41;11.05;;;2.97;;
73900;SDS011;62235;52.160;7.526;2023-01-10T05:33:08;10.77;;;3.15;;
73900;SDS011;62235;52.160;7.526;2023-01-10T05:35:34;14.18;;;3.20;;
73900;SDS011;62235;52.160;7.526;2023-01-10T05:38:05;10.15;;;2.90;;
73900;SDS011;62235;52.160;7.526;2023-01-10T05:40:43;4.97;;;2.03;;
73900;SDS011;62235;52.160;7.526;2023-01-10T05:43:08;11.02;;;3.60;;
73900;SDS011;62235;52.160;7.526;2023-01-10T05:45:36;8.70;;;2.95;;
73900;SDS011;62235;52.160;7.526;2023-01-10T05:48:02;11.23;;;3.65;;
73900;SDS011;62235;52.160;7.526;2023-01-10T05:50:28;12.43;;;3.17;;
73900;SDS011;62235;52.160;7.526;2023-01-10T05:52:53;13.32;;;3.17;;
73900;SDS011;62235;52.160;7.526;2023-01-10T05:55:21;14.18;;;4.00;;
73900;SDS011;62235;52.160;7.526;2023-01-10T05:58:09;13.77;;;4.43;;
73900;SDS011;62235;52.160;7.526;2023-01-10T06:00:37;9.77;;;3.15;;
73900;SDS011;62235;52.160;7.526;2023-01-10T06:03:04;10.98;;;3.22;;
73900;SDS011;62235;52.160;7.526;2023-01-10T06:05:30;19.52;;;3.60;;
73900;SDS011;62235;52.160;7.526;2023-01-10T06:08:02;14.45;;;4.97;;
73900;SDS011;62235;52.160;7.526;2023-01-10T06:13:57;11.35;;;3.90;;
73900;SDS011;62235;52.160;7.526;2023-01-10T06:16:23;12.50;;;4.45;;
73900;SDS011;62235;52.160;7.526;2023-01-10T06:18:52;8.60;;;3.20;;
73900;SDS011;62235;52.160;7.526;2023-01-10T06:21:20;11.18;;;4.35;;
73900;SDS011;62235;52.160;7.526;2023-01-10T06:23:46;7.00;;;1.95;;
73900;SDS011;62235;52.160;7.526;2023-01-10T06:26:11;13.60;;;4.93;;
73900;SDS011;62235;52.160;7.526;2023-01-10T06:28:36;9.05;;;3.42;;
73900;SDS011;62235;52.160;7.526;2023-01-10T06:31:04;13.07;;;4.45;;
73900;SDS011;62235;52.160;7.526;2023-01-10T06:33:44;17.42;;;4.32;;
73900;SDS011;62235;52.160;7.526;2023-01-10T06:36:10;9.70;;;3.77;;
73900;SDS011;62235;52.160;7.526;2023-01-10T06:38:35;8.70;;;3.03;;
73900;SDS011;62235;52.160;7.526;2023-01-10T06:41:00;9.30;;;2.73;;
73900;SDS011;62235;52.160;7.526;2023-01-10T06:43:37;16.10;;;4.55;;
73900;SDS011;62235;52.160;7.526;2023-01-10T06:46:12;15.65;;;4.65;;
73900;SDS011;62235;52.160;7.526;2023-01-10T06:48:40;10.40;;;4.00;;
73900;SDS011;62235;52.160;7.526;2023-01-10T06:51:07;5.40;;;2.83;;
73900;SDS011;62235;52.160;7.526;2023-01-10T06:53:33;9.57;;;2.42;;
73900;SDS011;62235;52.160;7.526;2023-01-10T06:55:58;16.53;;;4.33;;
73900;SDS011;62235;52.160;7.526;2023-01-10T06:58:23;16.73;;;3.43;;
73900;SDS011;62235;52.160;7.526;2023-01-10T07:00:49;11.83;;;3.73;;
73900;SDS011;62235;52.160;7.526;2023-01-10T07:03:15;15.95;;;4.20;;
73900;SDS011;62235;52.160;7.526;2023-01-10T07:05:40;18.45;;;5.10;;
73900;SDS011;62235;52.160;7.526;2023-01-10T07:08:06;17.13;;;5.50;;
73900;SDS011;62235;52.160;7.526;2023-01-10T07:10:31;17.60;;;4.72;;
73900;SDS011;62235;52.160;7.526;2023-01-10T07:12:57;16.08;;;6.03;;
73900;SDS011;62235;52.160;7.526;2023-01-10T07:15:22;10.82;;;4.25;;
73900;SDS011;62235;52.160;7.526;2023-01-10T07:17:48;16.60;;;5.72;;
73900;SDS011;62235;52.160;7.526;2023-01-10T07:20:13;18.40;;;5.43;;
73900;SDS011;62235;52.160;7.526;2023-01-10T07:22:39;18.27;;;5.88;;
73900;SDS011;62235;52.160;7.526;2023-01-10T07:25:04;16.95;;;5.60;;
73900;SDS011;62235;52.160;7.526;2023-01-10T07:27:30;16.75;;;4.93;;
73900;SDS011;62235;52.160;7.526;2023-01-10T07:29:56;20.02;;;5.50;;
73900;SDS011;62235;52.160;7.526;2023-01-10T07:32:22;16.95;;;4.70;;
73900;SDS011;62235;52.160;7.526;2023-01-10T07:34:49;12.60;;;4.72;;
73900;SDS011;62235;52.160;7.526;2023-01-10T07:37:15;17.55;;;4.90;;
73900;SDS011;62235;52.160;7.526;2023-01-10T07:39:40;13.13;;;4.47;;
73900;SDS011;62235;52.160;7.526;2023-01-10T07:42:10;23.02;;;5.85;;
73900;SDS011;62235;52.160;7.526;2023-01-10T07:44:36;18.63;;;4.45;;
73900;SDS011;62235;52.160;7.526;2023-01-10T07:47:02;12.05;;;2.90;;
73900;SDS011;62235;52.160;7.526;2023-01-10T07:49:27;18.75;;;5.55;;
73900;SDS011;62235;52.160;7.526;2023-01-10T07:51:53;16.48;;;4.07;;
73900;SDS011;62235;52.160;7.526;2023-01-10T07:54:18;17.05;;;4.20;;
73900;SDS011;62235;52.160;7.526;2023-01-10T07:56:44;16.48;;;5.40;;
73900;SDS011;62235;52.160;7.526;2023-01-10T07:59:11;13.23;;;3.53;;
73900;SDS011;62235;52.160;7.526;2023-01-10T08:01:37;12.18;;;3.50;;
73900;SDS011;62235;52.160;7.526;2023-01-10T08:04:02;13.40;;;4.10;;
73900;SDS011;62235;52.160;7.526;2023-01-10T08:06:27;14.23;;;4.67;;
73900;SDS011;62235;52.160;7.526;2023-01-10T08:08:53;13.13;;;4.43;;
73900;SDS011;62235;52.160;7.526;2023-01-10T08:11:18;12.82;;;4.80;;
73900;SDS011;62235;52.160;7.526;2023-01-10T08:13:44;9.50;;;4.17;;
73900;SDS011;62235;52.160;7.526;2023-01-10T08:16:09;14.73;;;3.03;;
73900;SDS011;62235;52.160;7.526;2023-01-10T08:18:35;21.77;;;5.65;;
73900;SDS011;62235;52.160;7.526;2023-01-10T08:21:00;21.80;;;5.40;;
73900;SDS011;62235;52.160;7.526;2023-01-10T08:23:26;11.65;;;3.70;;
73900;SDS011;62235;52.160;7.526;2023-01-10T08:25:51;17.02;;;5.28;;
73900;SDS011;62235;52.160;7.526;2023-01-10T08:28:18;23.23;;;5.38;;
73900;SDS011;62235;52.160;7.526;2023-01-10T08:30:43;12.45;;;4.70;;
73900;SDS011;62235;52.160;7.526;2023-01-10T08:33:09;14.07;;;4.73;;
73900;SDS011;62235;52.160;7.526;2023-01-10T08:35:39;17.70;;;4.75;;
73900;SDS011;62235;52.160;7.526;2023-01-10T08:38:06;18.30;;;6.20;;
73900;SDS011;62235;52.160;7.526;2023-01-10T08:40:31;16.10;;;5.70;;
73900;SDS011;62235;52.160;7.526;2023-01-10T08:43:01;14.10;;;3.92;;
73900;SDS011;62235;52.160;7.526;2023-01-10T08:45:28;22.17;;;4.60;;
73900;SDS011;62235;52.160;7.526;2023-01-10T08:47:54;10.38;;;3.88;;
73900;SDS011;62235;52.160;7.526;2023-01-10T08:50:20;18.90;;;5.63;;
73900;SDS011;62235;52.160;7.526;2023-01-10T08:52:45;24.65;;;5.47;;
73900;SDS011;62235;52.160;7.526;2023-01-10T08:55:11;19.13;;;5.45;;
73900;SDS011;62235;52.160;7.526;2023-01-10T08:57:36;13.73;;;4.00;;
73900;SDS011;62235;52.160;7.526;2023-01-10T09:00:02;14.70;;;3.90;;
73900;SDS011;62235;52.160;7.526;2023-01-10T09:02:28;11.80;;;4.18;;
73900;SDS011;62235;52.160;7.526;2023-01-10T09:04:53;13.63;;;3.00;;
73900;SDS011;62235;52.160;7.526;2023-01-10T09:07:19;16.35;;;4.25;;
73900;SDS011;62235;52.160;7.526;2023-01-10T09:09:44;15.83;;;3.67;;
73900;SDS011;62235;52.160;7.526;2023-01-10T09:12:09;12.50;;;3.40;;
73900;SDS011;62235;52.160;7.526;2023-01-10T09:14:54;14.00;;;3.42;;
73900;SDS011;62235;52.160;7.526;2023-01-10T09:17:19;19.00;;;4.07;;
73900;SDS011;62235;52.160;7.526;2023-01-10T09:19:45;17.13;;;3.45;;
73900;SDS011;62235;52.160;7.526;2023-01-10T09:22:11;15.65;;;4.03;;
73900;SDS011;62235;52.160;7.526;2023-01-10T09:24:36;16.45;;;2.88;;
73900;SDS011;62235;52.160;7.526;2023-01-10T09:27:03;19.50;;;3.55;;
73900;SDS011;62235;52.160;7.526;2023-01-10T09:29:29;14.35;;;3.65;;
73900;SDS011;62235;52.160;7.526;2023-01-10T09:31:54;13.80;;;2.78;;
73900;SDS011;62235;52.160;7.526;2023-01-10T09:34:20;13.45;;;3.30;;
73900;SDS011;62235;52.160;7.526;2023-01-10T09:36:46;19.58;;;3.63;;
73900;SDS011;62235;52.160;7.526;2023-01-10T09:39:13;17.55;;;3.38;;
73900;SDS011;62235;52.160;7.526;2023-01-10T09:47:33;17.40;;;3.38;;
73900;SDS011;62235;52.160;7.526;2023-01-10T09:50:36;18.80;;;3.80;;
73900;SDS011;62235;52.160;7.526;2023-01-10T09:53:20;18.33;;;3.03;;
73900;SDS011;62235;52.160;7.526;2023-01-10T09:55:50;10.35;;;2.33;;
73900;SDS011;62235;52.160;7.526;2023-01-10T09:58:18;36.47;;;2.83;;
73900;SDS011;62235;52.160;7.526;2023-01-10T10:00:51;18.27;;;3.25;;
73900;SDS011;62235;52.160;7.526;2023-01-10T10:06:10;13.13;;;2.17;;
73900;SDS011;62235;52.160;7.526;2023-01-10T10:08:37;18.90;;;4.50;;
73900;SDS011;62235;52.160;7.526;2023-01-10T10:11:09;11.52;;;3.20;;
73900;SDS011;62235;52.160;7.526;2023-01-10T10:16:46;13.82;;;3.00;;
73900;SDS011;62235;52.160;7.526;2023-01-10T10:19:22;12.50;;;3.58;;
73900;SDS011;62235;52.160;7.526;2023-01-10T10:24:50;18.50;;;4.90;;
73900;SDS011;62235;52.160;7.526;2023-01-10T10:27:40;20.15;;;4.43;;
73900;SDS011;62235;52.160;7.526;2023-01-10T10:35:53;16.63;;;4.73;;
73900;SDS011;62235;52.160;7.526;2023-01-10T10:38:23;17.20;;;4.70;;
73900;SDS011;62235;52.160;7.526;2023-01-10T10:40:54;16.95;;;3.50;;
73900;SDS011;62235;52.160;7.526;2023-01-10T10:43:21;24.05;;;4.90;;
73900;SDS011;62235;52.160;7.526;2023-01-10T10:48:43;17.23;;;4.03;;
73900;SDS011;62235;52.160;7.526;2023-01-10T10:51:18;23.77;;;5.10;;
73900;SDS011;62235;52.160;7.526;2023-01-10T10:53:48;17.00;;;4.90;;
73900;SDS011;62235;52.160;7.526;2023-01-10T10:56:15;14.77;;;4.75;;
73900;SDS011;62235;52.160;7.526;2023-01-10T10:58:43;16.42;;;3.95;;
73900;SDS011;62235;52.160;7.526;2023-01-10T11:03:54;13.13;;;3.72;;
73900;SDS011;62235;52.160;7.526;2023-01-10T11:06:22;15.20;;;3.78;;
73900;SDS011;62235;52.160;7.526;2023-01-10T11:08:48;16.30;;;3.72;;
73900;SDS011;62235;52.160;7.526;2023-01-10T11:11:18;15.75;;;3.25;;
73900;SDS011;62235;52.160;7.526;2023-01-10T11:13:48;17.05;;;3.53;;
73900;SDS011;62235;52.160;7.526;2023-01-10T11:16:22;18.25;;;3.15;;
73900;SDS011;62235;52.160;7.526;2023-01-10T11:19:08;13.80;;;3.03;;
73900;SDS011;62235;52.160;7.526;2023-01-10T11:21:35;16.67;;;3.65;;
73900;SDS011;62235;52.160;7.526;2023-01-10T11:24:03;20.98;;;3.90;;
73900;SDS011;62235;52.160;7.526;2023-01-10T11:26:29;10.77;;;3.78;;
73900;SDS011;62235;52.160;7.526;2023-01-10T11:29:05;18.83;;;4.10;;
73900;SDS011;62235;52.160;7.526;2023-01-10T11:31:32;20.25;;;5.07;;
73900;SDS011;62235;52.160;7.526;2023-01-10T11:33:59;21.17;;;5.03;;
73900;SDS011;62235;52.160;7.526;2023-01-10T11:36:25;14.32;;;4.47;;
73900;SDS011;62235;52.160;7.526;2023-01-10T11:38:58;18.60;;;3.87;;
73900;SDS011;62235;52.160;7.526;2023-01-10T11:41:25;17.48;;;3.63;;
73900;SDS011;62235;52.160;7.526;2023-01-10T11:44:10;17.08;;;3.38;;
73900;SDS011;62235;52.160;7.526;2023-01-10T11:46:45;18.13;;;3.40;;
73900;SDS011;62235;52.160;7.526;2023-01-10T11:49:11;16.30;;;3.67;;
73900;SDS011;62235;52.160;7.526;2023-01-10T11:51:44;15.55;;;3.15;;
73900;SDS011;62235;52.160;7.526;2023-01-10T11:54:12;19.17;;;4.05;;
73900;SDS011;62235;52.160;7.526;2023-01-10T11:56:41;13.55;;;3.53;;
73900;SDS011;62235;52.160;7.526;2023-01-10T11:59:12;17.20;;;4.80;;
73900;SDS011;62235;52.160;7.526;2023-01-10T12:04:05;23.38;;;5.10;;
73900;SDS011;62235;52.160;7.526;2023-01-10T12:06:31;21.65;;;4.25;;
73900;SDS011;62235;52.160;7.526;2023-01-10T12:08:57;20.70;;;4.55;;
73900;SDS011;62235;52.160;7.526;2023-01-10T12:13:56;22.55;;;5.95;;
73900;SDS011;62235;52.160;7.526;2023-01-10T12:16:24;28.23;;;5.65;;
73900;SDS011;62235;52.160;7.526;2023-01-10T12:18:55;23.60;;;5.50;;
73900;SDS011;62235;52.160;7.526;2023-01-10T12:21:43;23.60;;;5.90;;
73900;SDS011;62235;52.160;7.526;2023-01-10T12:24:23;16.30;;;5.47;;
73900;SDS011;62235;52.160;7.526;2023-01-10T12:26:52;23.52;;;7.55;;
73900;SDS011;62235;52.160;7.526;2023-01-10T12:29:19;24.55;;;6.28;;
73900;SDS011;62235;52.160;7.526;2023-01-10T12:34:16;22.58;;;5.78;;
73900;SDS011;62235;52.160;7.526;2023-01-10T12:39:40;27.42;;;7.15;;
73900;SDS011;62235;52.160;7.526;2023-01-10T12:44:56;22.95;;;6.55;;
73900;SDS011;62235;52.160;7.526;2023-01-10T12:47:33;25.30;;;7.30;;
73900;SDS011;62235;52.160;7.526;2023-01-10T12:50:17;20.60;;;6.25;;
73900;SDS011;62235;52.160;7.526;2023-01-10T12:55:34;26.00;;;6.63;;
73900;SDS011;62235;52.160;7.526;2023-01-10T12:58:04;24.92;;;6.32;;
73900;SDS011;62235;52.160;7.526;2023-01-10T13:00:39;24.83;;;8.23;;
73900;SDS011;62235;52.160;7.526;2023-01-10T13:03:09;25.35;;;6.80;;
73900;SDS011;62235;52.160;7.526;2023-01-10T13:05:36;18.20;;;6.25;;
73900;SDS011;62235;52.160;7.526;2023-01-10T13:08:03;20.77;;;5.27;;
73900;SDS011;62235;52.160;7.526;2023-01-10T13:10:31;22.42;;;6.72;;
73900;SDS011;62235;52.160;7.526;2023-01-10T13:13:03;20.75;;;5.75;;
73900;SDS011;62235;52.160;7.526;2023-01-10T13:15:35;28.90;;;5.85;;
73900;SDS011;62235;52.160;7.526;2023-01-10T13:18:14;20.27;;;6.18;;
73900;SDS011;62235;52.160;7.526;2023-01-10T13:20:42;16.17;;;4.88;;
73900;SDS011;62235;52.160;7.526;2023-01-10T13:23:20;22.75;;;4.63;;
73900;SDS011;62235;52.160;7.526;2023-01-10T13:25:55;19.50;;;6.05;;
73900;SDS011;62235;52.160;7.526;2023-01-10T13:28:23;24.13;;;5.95;;
73900;SDS011;62235;52.160;7.526;2023-01-10T13:30:58;13.50;;;4.00;;
73900;SDS011;62235;52.160;7.526;2023-01-10T13:36:05;28.70;;;5.70;;
73900;SDS011;62235;52.160;7.526;2023-01-10T13:38:52;24.08;;;5.35;;
73900;SDS011;62235;52.160;7.526;2023-01-10T13:41:19;17.92;;;4.82;;
73900;SDS011;62235;52.160;7.526;2023-01-10T13:46:38;15.23;;;4.03;;
73900;SDS011;62235;52.160;7.526;2023-01-10T13:51:36;20.77;;;4.45;;
73900;SDS011;62235;52.160;7.526;2023-01-10T13:54:02;25.15;;;5.32;;
73900;SDS011;62235;52.160;7.526;2023-01-10T13:56:40;15.43;;;3.13;;
73900;SDS011;62235;52.160;7.526;2023-01-10T13:59:10;17.70;;;3.13;;
73900;SDS011;62235;52.160;7.526;2023-01-10T14:02:20;20.52;;;3.65;;
73900;SDS011;62235;52.160;7.526;2023-01-10T14:04:53;16.00;;;3.63;;
73900;SDS011;62235;52.160;7.526;2023-01-10T14:07:50;16.25;;;2.70;;
73900;SDS011;62235;52.160;7.526;2023-01-10T14:10:20;21.55;;;3.78;;
73900;SDS011;62235;52.160;7.526;2023-01-10T14:12:48;12.82;;;3.25;;
73900;SDS011;62235;52.160;7.526;2023-01-10T14:15:26;18.73;;;2.88;;
73900;SDS011;62235;52.160;7.526;2023-01-10T14:18:00;12.32;;;2.40;;
73900;SDS011;62235;52.160;7.526;2023-01-10T14:20:27;19.42;;;3.03;;
73900;SDS011;62235;52.160;7.526;2023-01-10T14:23:01;22.40;;;3.60;;
73900;SDS011;62235;52.160;7.526;2023-01-10T14:25:33;13.85;;;2.53;;
73900;SDS011;62235;52.160;7.526;2023-01-10T14:28:04;17.27;;;2.67;;
73900;SDS011;62235;52.160;7.526;2023-01-10T14:38:18;16.75;;;2.53;;
73900;SDS011;62235;52.160;7.526;2023-01-10T14:40:48;13.13;;;2.25;;
73900;SDS011;62235;52.160;7.526;2023-01-10T14:43:15;13.50;;;3.70;;
73900;SDS011;62235;52.160;7.526;2023-01-10T14:48:40;11.50;;;2.30;;
73900;SDS011;62235;52.160;7.526;2023-01-10T14:51:23;17.60;;;3.28;;
73900;SDS011;62235;52.160;7.526;2023-01-10T14:56:38;16.90;;;3.28;;
73900;SDS011;62235;52.160;7.526;2023-01-10T15:01:49;18.67;;;3.92;;
73900;SDS011;62235;52.160;7.526;2023-01-10T15:04:16;13.48;;;3.35;;
73900;SDS011;62235;52.160;7.526;2023-01-10T15:06:53;15.55;;;3.65;;
73900;SDS011;62235;52.160;7.526;2023-01-10T15:09:21;11.77;;;2.70;;
73900;SDS011;62235;52.160;7.526;2023-01-10T15:11:46;14.20;;;3.13;;
73900;SDS011;62235;52.160;7.526;2023-01-10T15:14:13;16.90;;;3.20;;
73900;SDS011;62235;52.160;7.526;2023-01-10T15:16:41;15.90;;;3.50;;
73900;SDS011;62235;52.160;7.526;2023-01-10T15:19:12;17.20;;;2.80;;
73900;SDS011;62235;52.160;7.526;2023-01-10T15:21:41;18.13;;;3.55;;
73900;SDS011;62235;52.160;7.526;2023-01-10T15:24:24;21.48;;;3.00;;
73900;SDS011;62235;52.160;7.526;2023-01-10T15:26:59;20.27;;;2.88;;
73900;SDS011;62235;52.160;7.526;2023-01-10T15:29:26;14.93;;;2.75;;
73900;SDS011;62235;52.160;7.526;2023-01-10T15:31:52;15.77;;;3.45;;
73900;SDS011;62235;52.160;7.526;2023-01-10T15:34:20;17.48;;;2.97;;
73900;SDS011;62235;52.160;7.526;2023-01-10T15:36:48;14.60;;;3.00;;
73900;SDS011;62235;52.160;7.526;2023-01-10T15:39:20;17.83;;;2.97;;
73900;SDS011;62235;52.160;7.526;2023-01-10T15:41:47;15.73;;;2.92;;
73900;SDS011;62235;52.160;7.526;2023-01-10T15:44:32;19.58;;;3.28;;
73900;SDS011;62235;52.160;7.526;2023-01-10T15:46:59;14.52;;;2.90;;
73900;SDS011;62235;52.160;7.526;2023-01-10T15:49:25;9.80;;;2.10;;
73900;SDS011;62235;52.160;7.526;2023-01-10T15:51:50;16.05;;;3.80;;
73900;SDS011;62235;52.160;7.526;2023-01-10T15:56:49;18.08;;;2.95;;
73900;SDS011;62235;52.160;7.526;2023-01-10T16:02:04;13.82;;;2.70;;
73900;SDS011;62235;52.160;7.526;2023-01-10T16:04:33;15.02;;;2.35;;
73900;SDS011;62235;52.160;7.526;2023-01-10T16:10:26;18.40;;;3.15;;
73900;SDS011;62235;52.160;7.526;2023-01-10T16:49:31;9.93;;;2.75;;
73900;SDS011;62235;52.160;7.526;2023-01-10T16:51:57;14.43;;;3.15;;
73900;SDS011;62235;52.160;7.526;2023-01-10T16:54:22;10.52;;;2.67;;
73900;SDS011;62235;52.160;7.526;2023-01-10T16:56:52;13.77;;;3.97;;
73900;SDS011;62235;52.160;7.526;2023-01-10T16:59:17;14.77;;;3.20;;
73900;SDS011;62235;52.160;7.526;2023-01-10T17:01:46;15.23;;;2.85;;
73900;SDS011;62235;52.160;7.526;2023-01-10T17:04:16;7.32;;;2.83;;
73900;SDS011;62235;52.160;7.526;2023-01-10T17:06:45;11.60;;;2.08;;
73900;SDS011;62235;52.160;7.526;2023-01-10T17:09:21;15.45;;;3.13;;
73900;SDS011;62235;52.160;7.526;2023-01-10T17:11:52;12.88;;;2.75;;
73900;SDS011;62235;52.160;7.526;2023-01-10T17:14:29;12.40;;;2.75;;
73900;SDS011;62235;52.160;7.526;2023-01-10T17:16:55;11.73;;;3.20;;
73900;SDS011;62235;52.160;7.526;2023-01-10T17:19:21;13.13;;;2.95;;